createdAt,value
2017-10-16T00:00:09.336Z,456.33
2017-10-16T00:02:36.009Z,457.60
2017-10-16T00:05:02.667Z,453.87
2017-10-16T00:07:29.338Z,450.40
2017-10-16T00:09:56.088Z,453.33
2017-10-16T00:12:22.761Z,450.20
2017-10-16T00:14:49.416Z,452.53
2017-10-16T00:17:16.061Z,453.97
2017-10-16T00:19:42.724Z,450.00
2017-10-16T00:22:09.386Z,442.97
2017-10-16T00:24:36.073Z,452.27
2017-10-16T00:27:02.730Z,453.77
2017-10-16T00:29:29.397Z,444.77
2017-10-16T00:31:56.149Z,450.83
2017-10-16T00:34:22.834Z,429.33
2017-10-16T00:36:49.481Z,432.03
2017-10-16T00:39:16.130Z,447.20
2017-10-16T00:41:42.806Z,444.83
2017-10-16T00:44:09.461Z,434.97
2017-10-16T00:46:36.133Z,440.03
2017-10-16T00:49:02.797Z,428.80
2017-10-16T00:51:29.468Z,437.33
2017-10-16T00:53:56.119Z,431.77
2017-10-16T00:56:22.854Z,435.80
2017-10-16T00:58:49.505Z,420.40
2017-10-16T01:01:16.255Z,421.23
2017-10-16T01:03:42.926Z,428.60
2017-10-16T01:06:09.577Z,425.87
2017-10-16T01:08:36.306Z,428.27
2017-10-16T01:11:02.956Z,427.53
2017-10-16T01:13:29.630Z,425.17
2017-10-16T01:15:56.360Z,421.27
2017-10-16T01:18:23.024Z,428.27
2017-10-16T01:20:49.670Z,429.23
2017-10-16T01:23:16.342Z,417.00
2017-10-16T01:25:42.993Z,411.90
2017-10-16T01:28:09.668Z,407.80
2017-10-16T01:30:36.375Z,421.33
2017-10-16T01:33:03.026Z,417.03
2017-10-16T01:35:29.781Z,404.37
2017-10-16T01:37:56.444Z,413.03
2017-10-16T01:40:23.126Z,412.57
2017-10-16T01:42:49.773Z,409.63
2017-10-16T01:45:16.477Z,410.00
2017-10-16T01:47:43.130Z,413.47
2017-10-16T01:50:09.809Z,407.13
2017-10-16T01:52:36.534Z,401.07
2017-10-16T01:55:03.218Z,405.10
2017-10-16T01:57:29.865Z,393.27
2017-10-16T01:59:56.518Z,400.73
2017-10-16T02:02:23.184Z,404.03
2017-10-16T02:04:49.832Z,392.00
2017-10-16T02:07:16.496Z,396.97
2017-10-16T02:09:43.150Z,382.17
2017-10-16T02:12:09.836Z,394.03
2017-10-16T02:14:36.593Z,384.00
2017-10-16T02:17:03.266Z,383.93
2017-10-16T02:19:29.998Z,380.80
2017-10-16T02:21:56.690Z,396.77
2017-10-16T02:24:23.341Z,386.13
2017-10-16T02:26:49.993Z,382.77
2017-10-16T02:29:16.669Z,376.27
2017-10-16T02:31:43.350Z,388.60
2017-10-16T02:34:10.021Z,376.70
2017-10-16T02:36:36.669Z,376.57
2017-10-16T02:39:03.346Z,366.33
2017-10-16T02:41:30.002Z,353.23
2017-10-16T02:43:56.678Z,379.30
2017-10-16T02:46:23.329Z,373.53
2017-10-16T02:48:49.982Z,361.77
2017-10-16T02:51:16.654Z,358.07
2017-10-16T02:53:43.426Z,367.63
2017-10-16T02:56:10.098Z,358.73
2017-10-16T02:58:36.819Z,365.00
2017-10-16T03:01:03.495Z,354.33
2017-10-16T03:03:30.146Z,363.87
2017-10-16T03:05:56.822Z,365.47
2017-10-16T03:08:23.535Z,358.57
2017-10-16T03:10:50.190Z,359.47
2017-10-16T03:13:16.877Z,361.37
2017-10-16T03:15:43.681Z,361.20
2017-10-16T03:18:10.353Z,337.23
2017-10-16T03:20:37.076Z,349.03
2017-10-16T03:23:03.835Z,350.40
2017-10-16T03:25:30.580Z,352.23
2017-10-16T03:27:57.248Z,337.17
2017-10-16T03:30:23.895Z,333.70
2017-10-16T03:32:50.549Z,346.97
2017-10-16T03:35:17.218Z,341.97
2017-10-16T03:37:43.861Z,339.73
2017-10-16T03:40:10.583Z,341.63
2017-10-16T03:42:37.231Z,335.77
2017-10-16T03:45:03.921Z,333.10
2017-10-16T03:47:30.576Z,336.77
2017-10-16T03:49:57.224Z,339.67
2017-10-16T03:52:23.893Z,339.20
2017-10-16T03:54:50.551Z,332.00
2017-10-16T03:57:17.213Z,336.50
2017-10-16T03:59:43.865Z,342.30
2017-10-16T04:02:10.546Z,327.10
2017-10-16T04:04:37.200Z,334.53
2017-10-16T04:07:03.869Z,331.03
2017-10-16T04:09:30.517Z,331.23
2017-10-16T04:11:57.252Z,318.10
2017-10-16T04:14:24.008Z,320.90
2017-10-16T04:16:50.656Z,326.27
2017-10-16T04:19:17.319Z,327.77
2017-10-16T04:21:44.280Z,326.93
2017-10-16T04:24:10.954Z,304.73
2017-10-16T04:26:37.601Z,312.67
2017-10-16T04:29:04.319Z,319.97
2017-10-16T04:31:31.082Z,318.20
2017-10-16T04:33:57.745Z,314.23
2017-10-16T04:36:24.476Z,323.37
2017-10-16T04:38:51.121Z,308.27
2017-10-16T04:41:17.805Z,305.07
2017-10-16T04:43:44.749Z,319.43
2017-10-16T04:46:11.396Z,307.83
2017-10-16T04:48:38.061Z,310.73
2017-10-16T04:51:04.704Z,312.23
2017-10-16T04:53:31.372Z,312.07
2017-10-16T04:55:58.017Z,302.77
2017-10-16T04:58:24.752Z,314.13
2017-10-16T05:00:51.501Z,299.43
2017-10-16T05:03:18.144Z,308.77
2017-10-16T05:05:44.812Z,296.43
2017-10-16T05:08:11.461Z,298.33
2017-10-16T05:10:38.200Z,286.97
2017-10-16T05:13:04.844Z,297.33
2017-10-16T05:15:31.609Z,296.60
2017-10-16T05:17:58.252Z,285.23
2017-10-16T05:20:24.917Z,305.20
2017-10-16T05:22:51.659Z,279.73
2017-10-16T05:25:18.304Z,280.73
2017-10-16T05:27:44.968Z,285.87
2017-10-16T05:30:11.716Z,290.53
2017-10-16T05:32:38.381Z,285.67
2017-10-16T05:35:05.132Z,283.13
2017-10-16T05:37:31.791Z,280.80
2017-10-16T05:39:58.443Z,278.63
2017-10-16T05:42:25.113Z,276.03
2017-10-16T05:44:51.760Z,285.43
2017-10-16T05:47:18.409Z,268.17
2017-10-16T05:49:45.128Z,277.23
2017-10-16T05:52:11.768Z,296.50
2017-10-16T05:54:38.433Z,282.60
2017-10-16T05:57:05.180Z,274.23
2017-10-16T05:59:31.840Z,269.67
2017-10-16T06:01:58.484Z,272.00
2017-10-16T06:04:25.131Z,270.10
2017-10-16T06:06:51.797Z,276.57
2017-10-16T06:09:18.439Z,268.97
2017-10-16T06:11:45.101Z,269.03
2017-10-16T06:14:11.757Z,257.27
2017-10-16T06:16:38.428Z,239.77
2017-10-16T06:19:05.067Z,231.03
2017-10-16T06:21:31.728Z,68.80
2017-10-16T06:23:58.364Z,34.80
2017-10-16T06:26:25.001Z,37.43
2017-10-16T06:28:51.714Z,99.97
2017-10-16T06:31:18.369Z,115.77
2017-10-16T06:33:45.049Z,108.40
2017-10-16T06:36:11.684Z,93.70
2017-10-16T06:38:38.346Z,96.43
2017-10-16T06:41:05.005Z,89.20
2017-10-16T06:43:31.721Z,102.17
2017-10-16T06:45:58.382Z,90.17
2017-10-16T06:48:25.025Z,82.20
2017-10-16T06:50:51.702Z,89.07
2017-10-16T06:53:18.345Z,89.83
2017-10-16T06:55:44.985Z,90.33
2017-10-16T06:58:11.636Z,85.13
2017-10-16T07:00:38.275Z,108.17
2017-10-16T07:03:04.936Z,130.43
2017-10-16T07:05:31.582Z,91.60
2017-10-16T07:07:58.249Z,89.63
2017-10-16T07:10:24.893Z,56.27
2017-10-16T07:12:51.546Z,64.23
2017-10-16T07:15:18.189Z,73.83
2017-10-16T07:17:44.825Z,85.50
2017-10-16T07:20:11.828Z,78.50
2017-10-16T07:22:38.468Z,77.03
2017-10-16T07:25:05.185Z,76.60
2017-10-16T07:27:31.837Z,73.70
2017-10-16T07:29:58.512Z,77.73
2017-10-16T07:32:25.152Z,84.43
2017-10-16T07:34:51.837Z,86.20
2017-10-16T07:37:18.489Z,80.23
2017-10-16T07:39:45.177Z,73.13
2017-10-16T07:42:11.836Z,78.13
2017-10-16T07:44:38.472Z,76.23
2017-10-16T07:47:05.144Z,75.40
2017-10-16T07:49:31.806Z,72.63
2017-10-16T07:51:58.468Z,72.70
2017-10-16T07:54:25.108Z,79.40
2017-10-16T07:56:51.761Z,71.10
2017-10-16T07:59:18.464Z,71.40
2017-10-16T08:01:45.145Z,76.10
2017-10-16T08:04:11.788Z,76.37
2017-10-16T08:06:38.478Z,79.67
2017-10-16T08:09:05.170Z,74.07
2017-10-16T08:11:31.817Z,71.17
2017-10-16T08:13:58.498Z,72.10
2017-10-16T08:16:25.161Z,80.73
2017-10-16T08:18:51.820Z,81.87
2017-10-16T08:21:18.460Z,76.40
2017-10-16T08:23:45.116Z,78.63
2017-10-16T08:26:11.756Z,79.10
2017-10-16T08:28:38.425Z,80.57
2017-10-16T08:31:05.061Z,72.13
2017-10-16T08:33:31.705Z,72.07
2017-10-16T08:35:58.360Z,72.37
2017-10-16T08:38:25.057Z,73.90
2017-10-16T08:40:51.752Z,75.83
2017-10-16T08:43:18.438Z,72.57
2017-10-16T08:45:45.106Z,75.87
2017-10-16T08:48:11.761Z,76.83
2017-10-16T08:50:38.411Z,76.03
2017-10-16T08:53:05.053Z,69.43
2017-10-16T08:55:31.722Z,74.40
2017-10-16T08:57:58.394Z,68.97
2017-10-16T09:00:25.036Z,80.13
2017-10-16T09:02:51.714Z,68.17
2017-10-16T09:05:18.368Z,69.63
2017-10-16T09:07:45.038Z,78.07
2017-10-16T09:10:11.676Z,69.87
2017-10-16T09:12:38.340Z,67.23
2017-10-16T09:15:04.972Z,66.43
2017-10-16T09:17:31.628Z,71.43
2017-10-16T09:19:58.280Z,68.87
2017-10-16T09:22:24.932Z,67.93
2017-10-16T09:24:51.569Z,68.63
2017-10-16T09:27:18.232Z,67.20
2017-10-16T09:29:44.868Z,70.23
2017-10-16T09:32:11.512Z,70.63
2017-10-16T09:34:38.169Z,68.67
2017-10-16T09:37:04.808Z,61.30
2017-10-16T09:39:31.470Z,64.73
2017-10-16T09:41:58.130Z,69.07
2017-10-16T09:44:24.788Z,66.40
2017-10-16T09:46:51.424Z,70.13
2017-10-16T09:49:18.084Z,66.80
2017-10-16T09:51:44.724Z,67.03
2017-10-16T09:54:11.384Z,62.90
2017-10-16T09:56:38.028Z,67.60
2017-10-16T09:59:04.673Z,68.57
2017-10-16T10:01:31.334Z,66.13
2017-10-16T10:03:57.968Z,67.27
2017-10-16T10:06:24.624Z,65.03
2017-10-16T10:08:51.261Z,60.67
2017-10-16T10:11:17.916Z,59.23
2017-10-16T10:13:44.552Z,63.27
2017-10-16T10:16:11.208Z,61.70
2017-10-16T10:18:37.854Z,62.83
2017-10-16T10:21:04.512Z,63.10
2017-10-16T10:23:31.156Z,62.53
2017-10-16T10:25:57.812Z,63.73
2017-10-16T10:28:24.448Z,66.40
2017-10-16T10:30:51.090Z,63.90
2017-10-16T10:33:17.740Z,63.90
2017-10-16T10:35:44.380Z,67.93
2017-10-16T10:38:11.064Z,63.27
2017-10-16T10:40:37.708Z,62.60
2017-10-16T10:43:04.368Z,63.27
2017-10-16T10:45:31.013Z,68.70
2017-10-16T10:47:57.673Z,63.17
2017-10-16T10:50:24.313Z,62.03
2017-10-16T10:52:50.981Z,61.70
2017-10-16T10:55:17.630Z,62.97
2017-10-16T10:57:44.273Z,65.30
2017-10-16T11:00:10.943Z,59.30
2017-10-16T11:02:37.589Z,62.80
2017-10-16T11:05:04.244Z,59.13
2017-10-16T11:07:30.885Z,59.97
2017-10-16T11:09:57.549Z,61.00
2017-10-16T11:12:24.184Z,60.73
2017-10-16T11:14:50.849Z,66.70
2017-10-16T11:17:17.488Z,63.90
2017-10-16T11:19:44.141Z,63.63
2017-10-16T11:22:10.830Z,57.23
2017-10-16T11:24:37.509Z,60.53
2017-10-16T11:27:04.753Z,56.57
2017-10-16T11:29:30.907Z,61.57
2017-10-16T11:31:57.565Z,64.50
2017-10-16T11:34:24.301Z,61.17
2017-10-16T11:36:50.982Z,61.07
2017-10-16T11:39:17.633Z,57.80
2017-10-16T11:41:44.312Z,58.07
2017-10-16T11:44:10.952Z,62.20
2017-10-16T11:46:37.608Z,57.23
2017-10-16T11:49:04.264Z,59.03
2017-10-16T11:51:30.923Z,57.57
2017-10-16T11:53:57.565Z,58.67
2017-10-16T11:56:24.201Z,56.00
2017-10-16T11:58:50.988Z,57.53
2017-10-16T12:01:17.632Z,59.30
2017-10-16T12:03:44.290Z,54.73
2017-10-16T12:06:10.936Z,58.20
2017-10-16T12:08:37.596Z,56.60
2017-10-16T12:11:04.245Z,55.47
2017-10-16T12:13:31.026Z,55.93
2017-10-16T12:15:57.660Z,53.27
2017-10-16T12:18:24.330Z,52.47
2017-10-16T12:20:50.977Z,51.27
2017-10-16T12:23:17.620Z,55.40
2017-10-16T12:25:44.281Z,57.10
2017-10-16T12:28:10.925Z,52.10
2017-10-16T12:30:37.581Z,55.50
2017-10-16T12:33:04.226Z,56.07
2017-10-16T12:35:30.877Z,55.43
2017-10-16T12:37:57.524Z,58.20
2017-10-16T12:40:24.219Z,55.10
2017-10-16T12:42:50.852Z,53.83
2017-10-16T12:45:17.540Z,53.63
2017-10-16T12:47:44.185Z,55.47
2017-10-16T12:50:10.820Z,53.57
2017-10-16T12:52:37.477Z,57.80
2017-10-16T12:55:04.121Z,53.67
2017-10-16T12:57:30.799Z,53.77
2017-10-16T12:59:57.456Z,51.00
2017-10-16T13:02:24.116Z,50.20
2017-10-16T13:04:54.472Z,54.83
2017-10-16T13:07:21.257Z,52.50
2017-10-16T13:09:47.892Z,51.70
2017-10-16T13:12:14.553Z,48.67
2017-10-16T13:14:41.233Z,54.47
2017-10-16T13:17:07.879Z,48.80
2017-10-16T13:19:34.537Z,47.70
2017-10-16T13:22:01.198Z,50.27
2017-10-16T13:24:27.881Z,49.80
2017-10-16T13:26:54.521Z,51.00
2017-10-16T13:29:21.193Z,54.20
2017-10-16T13:31:47.837Z,52.10
2017-10-16T13:34:14.565Z,51.13
2017-10-16T13:36:41.213Z,46.77
2017-10-16T13:39:07.865Z,48.37
2017-10-16T13:41:34.505Z,50.23
2017-10-16T13:44:01.169Z,51.60
2017-10-16T13:46:27.917Z,49.73
2017-10-16T13:48:54.589Z,48.57
2017-10-16T13:51:21.252Z,51.23
2017-10-16T13:53:47.897Z,50.13
2017-10-16T13:56:14.607Z,47.70
2017-10-16T13:58:41.265Z,49.93
2017-10-16T14:01:07.929Z,45.10
2017-10-16T14:03:34.568Z,51.80
2017-10-16T14:06:01.276Z,47.30
2017-10-16T14:08:27.930Z,45.43
2017-10-16T14:10:54.617Z,45.83
2017-10-16T14:13:21.291Z,49.93
2017-10-16T14:15:47.969Z,44.43
2017-10-16T14:18:14.637Z,45.90
2017-10-16T14:20:41.277Z,46.13
2017-10-16T14:23:07.932Z,45.80
2017-10-16T14:25:34.565Z,46.90
2017-10-16T14:28:01.229Z,48.00
2017-10-16T14:30:27.920Z,48.40
2017-10-16T14:32:54.610Z,46.37
2017-10-16T14:35:21.273Z,46.30
2017-10-16T14:37:47.924Z,47.97
2017-10-16T14:40:14.580Z,44.83
2017-10-16T14:42:41.285Z,41.20
2017-10-16T14:45:07.945Z,45.87
2017-10-16T14:47:34.584Z,46.40
2017-10-16T14:50:01.245Z,46.40
2017-10-16T14:52:27.889Z,46.90
2017-10-16T14:54:54.536Z,45.27
2017-10-16T14:57:21.282Z,45.10
2017-10-16T14:59:47.933Z,44.97
2017-10-16T15:02:19.504Z,44.43
2017-10-16T15:04:46.144Z,44.50
2017-10-16T15:07:12.800Z,43.17
2017-10-16T15:09:39.441Z,43.37
2017-10-16T15:12:06.152Z,44.60
2017-10-16T15:14:32.802Z,39.27
2017-10-16T15:16:59.466Z,44.37
2017-10-16T15:19:26.109Z,42.13
2017-10-16T15:21:52.753Z,43.43
2017-10-16T15:24:19.412Z,41.57
2017-10-16T15:26:46.049Z,40.20
2017-10-16T15:29:12.700Z,46.20
2017-10-16T15:31:39.333Z,45.70
2017-10-16T15:34:06.121Z,45.37
2017-10-16T15:36:32.759Z,25.50
2017-10-16T15:38:59.415Z,31.07
2017-10-16T15:41:26.056Z,34.40
2017-10-16T15:43:52.752Z,33.67
2017-10-16T15:46:19.403Z,33.57
2017-10-16T15:48:46.073Z,36.90
2017-10-16T15:51:12.708Z,32.43
2017-10-16T15:53:39.348Z,24.13
2017-10-16T15:56:06.010Z,24.10
2017-10-16T15:58:32.662Z,24.47
2017-10-16T16:00:59.322Z,24.20
2017-10-16T16:03:25.961Z,26.83
2017-10-16T16:05:52.622Z,23.27
2017-10-16T16:08:19.264Z,26.07
2017-10-16T16:10:45.921Z,23.87
2017-10-16T16:13:12.589Z,23.57
2017-10-16T16:15:39.249Z,19.07
2017-10-16T16:18:05.888Z,24.13
2017-10-16T16:20:32.552Z,19.57
2017-10-16T16:22:59.184Z,15.30
2017-10-16T16:25:25.816Z,19.87
2017-10-16T16:27:52.484Z,19.00
2017-10-16T16:30:19.121Z,16.17
2017-10-16T16:32:46.125Z,16.10
2017-10-16T16:35:12.779Z,21.30
2017-10-16T16:37:39.440Z,26.47
2017-10-16T16:40:06.089Z,18.50
2017-10-16T16:42:32.753Z,19.37
2017-10-16T16:44:59.396Z,18.13
2017-10-16T16:47:26.048Z,19.10
2017-10-16T16:49:52.688Z,21.57
2017-10-16T16:52:19.361Z,19.40
2017-10-16T16:54:46.012Z,16.73
2017-10-16T16:57:12.652Z,16.83
2017-10-16T16:59:39.318Z,15.40
2017-10-16T17:02:05.972Z,16.63
2017-10-16T17:04:32.632Z,17.60
2017-10-16T17:06:59.272Z,19.43
2017-10-16T17:09:25.937Z,19.60
2017-10-16T17:11:52.576Z,19.10
2017-10-16T17:14:19.248Z,17.17
2017-10-16T17:16:45.886Z,15.73
2017-10-16T17:19:12.528Z,19.13
2017-10-16T17:21:39.200Z,16.80
2017-10-16T17:24:05.841Z,18.07
2017-10-16T17:26:32.500Z,17.83
2017-10-16T17:28:59.145Z,17.03
2017-10-16T17:31:25.805Z,15.40
2017-10-16T17:33:52.480Z,15.80
2017-10-16T17:36:19.140Z,15.60
2017-10-16T17:38:45.776Z,15.33
2017-10-16T17:41:12.432Z,15.80
2017-10-16T17:43:39.071Z,16.63
2017-10-16T17:46:06.085Z,15.57
2017-10-16T17:48:32.749Z,16.00
2017-10-16T17:50:59.388Z,14.87
2017-10-16T17:53:26.047Z,16.30
2017-10-16T17:55:52.691Z,16.40
2017-10-16T17:58:19.421Z,15.43
2017-10-16T18:00:46.075Z,14.93
2017-10-16T18:03:12.799Z,15.93
2017-10-16T18:05:39.436Z,18.60
2017-10-16T18:08:06.252Z,14.90
2017-10-16T18:10:32.913Z,16.67
2017-10-16T18:12:59.570Z,16.87
2017-10-16T18:15:26.242Z,18.67
2017-10-16T18:17:52.902Z,26.20
2017-10-16T18:20:19.558Z,109.80
2017-10-16T18:22:46.604Z,114.40
2017-10-16T18:25:13.273Z,157.37
2017-10-16T18:27:39.913Z,99.90
2017-10-16T18:30:06.569Z,42.60
2017-10-16T18:32:33.209Z,62.37
2017-10-16T18:34:59.868Z,45.00
2017-10-16T18:37:26.526Z,71.27
2017-10-16T18:39:53.164Z,56.73
2017-10-16T18:42:19.831Z,59.23
2017-10-16T18:44:46.486Z,56.87
2017-10-16T18:47:13.222Z,64.07
2017-10-16T18:49:39.918Z,54.63
2017-10-16T18:52:06.668Z,48.13
2017-10-16T18:54:33.325Z,42.53
2017-10-16T18:56:59.999Z,44.50
2017-10-16T18:59:27.061Z,37.60
2017-10-16T19:01:53.709Z,39.33
2017-10-16T19:04:20.369Z,41.23
2017-10-16T19:06:47.146Z,36.37
2017-10-16T19:09:14.545Z,39.30
2017-10-16T19:11:41.664Z,33.23
2017-10-16T19:14:08.325Z,36.73
2017-10-16T19:16:35.022Z,38.87
2017-10-16T19:19:01.840Z,39.37
2017-10-16T19:21:28.499Z,35.50
2017-10-16T19:23:55.229Z,41.80
2017-10-16T19:26:21.864Z,31.90
2017-10-16T19:28:48.637Z,36.80
2017-10-16T19:31:15.297Z,36.10
2017-10-16T19:33:41.943Z,36.53
2017-10-16T19:36:08.605Z,32.23
2017-10-16T19:38:35.248Z,34.33
2017-10-16T19:41:01.904Z,34.87
2017-10-16T19:43:29.472Z,33.50
2017-10-16T19:45:56.224Z,33.93
2017-10-16T19:48:22.865Z,36.63
2017-10-16T19:50:49.526Z,34.17
2017-10-16T19:53:16.213Z,32.80
2017-10-16T19:55:42.932Z,30.83
2017-10-16T19:58:09.590Z,32.93
2017-10-16T20:00:36.230Z,29.20
2017-10-16T20:03:02.916Z,33.20
2017-10-16T20:05:29.638Z,33.50
2017-10-16T20:07:56.428Z,33.70
2017-10-16T20:10:23.078Z,28.30
2017-10-16T20:12:49.807Z,28.27
2017-10-16T20:15:16.548Z,42.17
2017-10-16T20:17:43.231Z,29.20
2017-10-16T20:20:09.867Z,29.90
2017-10-16T20:22:36.526Z,30.07
2017-10-16T20:25:03.172Z,31.33
2017-10-16T20:27:29.901Z,30.87
2017-10-16T20:29:56.537Z,29.80
2017-10-16T20:32:23.178Z,29.87
2017-10-16T20:34:49.837Z,28.03
2017-10-16T20:37:16.478Z,37.07
2017-10-16T20:39:44.051Z,30.27
2017-10-16T20:42:10.754Z,29.53
2017-10-16T20:44:37.476Z,30.77
2017-10-16T20:47:04.190Z,27.90
2017-10-16T20:49:30.874Z,32.03
2017-10-16T20:51:57.522Z,24.60
2017-10-16T20:54:24.319Z,31.00
2017-10-16T20:56:50.965Z,32.17
2017-10-16T20:59:17.633Z,27.90
2017-10-16T21:01:44.309Z,24.57
2017-10-16T21:04:11.019Z,25.90
2017-10-16T21:06:37.745Z,27.63
2017-10-16T21:09:04.470Z,24.70
2017-10-16T21:11:31.128Z,26.40
2017-10-16T21:13:57.764Z,25.60
2017-10-16T21:16:24.482Z,25.47
2017-10-16T21:18:51.137Z,26.57
2017-10-16T21:21:17.782Z,27.53
2017-10-16T21:23:44.477Z,27.23
2017-10-16T21:26:11.158Z,25.97
2017-10-16T21:28:37.817Z,25.93
2017-10-16T21:31:04.509Z,26.03
2017-10-16T21:33:31.170Z,25.53
2017-10-16T21:35:57.814Z,29.90
2017-10-16T21:38:24.468Z,25.47
2017-10-16T21:40:51.143Z,30.80
2017-10-16T21:43:17.889Z,25.60
2017-10-16T21:45:44.530Z,24.87
2017-10-16T21:48:11.177Z,22.93
2017-10-16T21:50:37.848Z,28.00
2017-10-16T21:53:04.484Z,26.10
2017-10-16T21:55:31.139Z,27.30
2017-10-16T21:57:57.865Z,22.43
2017-10-16T22:00:24.524Z,26.87
2017-10-16T22:02:51.165Z,21.90
2017-10-16T22:05:17.889Z,24.17
2017-10-16T22:07:44.618Z,22.90
2017-10-16T22:10:11.262Z,23.23
2017-10-16T22:12:38.766Z,22.90
2017-10-16T22:15:05.413Z,25.60
2017-10-16T22:17:32.068Z,25.37
2017-10-16T22:19:58.708Z,22.17
2017-10-16T22:22:25.362Z,24.63
2017-10-16T22:24:52.005Z,24.47
2017-10-16T22:27:18.667Z,25.80
2017-10-16T22:29:45.324Z,24.53
2017-10-16T22:32:11.988Z,23.70
2017-10-16T22:34:38.624Z,28.07
2017-10-16T22:37:06.257Z,19.87
2017-10-16T22:39:33.275Z,24.50
2017-10-16T22:41:59.916Z,22.90
2017-10-16T22:44:26.567Z,25.87
2017-10-16T22:46:53.277Z,24.87
2017-10-16T22:49:20.254Z,22.77
2017-10-16T22:51:46.895Z,25.27
2017-10-16T22:54:19.420Z,23.60
2017-10-16T22:56:46.061Z,19.47
2017-10-16T22:59:12.713Z,22.70
2017-10-16T23:01:39.372Z,25.97
2017-10-16T23:04:06.013Z,24.17
2017-10-16T23:06:32.673Z,21.30
2017-10-16T23:08:59.308Z,21.20
2017-10-16T23:11:26.798Z,21.77
2017-10-16T23:13:53.481Z,20.53
2017-10-16T23:16:20.150Z,24.43
2017-10-16T23:18:46.792Z,20.40
2017-10-16T23:21:13.456Z,24.93
2017-10-16T23:23:40.190Z,19.63
2017-10-16T23:26:06.937Z,23.47
2017-10-16T23:28:33.594Z,20.57
2017-10-16T23:31:00.241Z,19.60
2017-10-16T23:33:26.909Z,20.73
2017-10-16T23:35:53.556Z,20.30
2017-10-16T23:38:21.049Z,24.43
2017-10-16T23:40:47.784Z,20.87
2017-10-16T23:43:14.436Z,20.10
2017-10-16T23:45:41.088Z,21.60
2017-10-16T23:48:07.740Z,21.67
2017-10-16T23:50:34.381Z,20.07
2017-10-16T23:53:01.128Z,23.10
2017-10-16T23:55:27.777Z,23.03
2017-10-16T23:57:54.484Z,21.80
